sensor_id;sensor_type;location;lat;lon;timestamp;pressure;altitude;pressure_sealevel;temperature;humidity
42067;BME280;27734;47.028;28.820;2023-06-26T00:00:30;99960.45;;;21.84;71.96
42067;BME280;27734;47.028;28.820;2023-06-26T00:03:22;99964.05;;;21.81;72.31
42067;BME280;27734;47.028;28.820;2023-06-26T00:05:53;99970.37;;;21.77;73.07
42067;BME280;27734;47.028;28.820;2023-06-26T00:08:29;99970.49;;;21.71;73.00
42067;BME280;27734;47.028;28.820;2023-06-26T00:11:00;99973.36;;;21.60;73.47
42067;BME280;27734;47.028;28.820;2023-06-26T00:13:31;99962.05;;;21.44;73.48
42067;BME280;27734;47.028;28.820;2023-06-26T00:16:02;99964.88;;;21.35;74.06
42067;BME280;27734;47.028;28.820;2023-06-26T00:18:34;99957.92;;;21.25;74.31
42067;BME280;27734;47.028;28.820;2023-06-26T00:21:05;99964.22;;;21.19;74.26
42067;BME280;27734;47.028;28.820;2023-06-26T00:23:37;99957.15;;;21.18;73.94
42067;BME280;27734;47.028;28.820;2023-06-26T00:26:08;99957.15;;;21.18;74.33
42067;BME280;27734;47.028;28.820;2023-06-26T00:28:40;99947.37;;;21.17;74.35
42067;BME280;27734;47.028;28.820;2023-06-26T00:31:11;99948.31;;;21.13;75.06
42067;BME280;27734;47.028;28.820;2023-06-26T00:33:42;99945.65;;;21.13;74.13
42067;BME280;27734;47.028;28.820;2023-06-26T00:36:14;99942.98;;;21.13;74.54
42067;BME280;27734;47.028;28.820;2023-06-26T00:38:45;99942.94;;;21.16;75.12
42067;BME280;27734;47.028;28.820;2023-06-26T00:41:16;99942.91;;;21.17;75.17
42067;BME280;27734;47.028;28.820;2023-06-26T00:43:48;99942.06;;;21.15;74.97
42067;BME280;27734;47.028;28.820;2023-06-26T00:46:19;99944.75;;;21.14;75.10
42067;BME280;27734;47.028;28.820;2023-06-26T00:48:50;99935.86;;;21.15;75.38
42067;BME280;27734;47.028;28.820;2023-06-26T00:51:23;99938.50;;;21.16;74.52
42067;BME280;27734;47.028;28.820;2023-06-26T00:53:55;99934.91;;;21.17;75.28
42067;BME280;27734;47.028;28.820;2023-06-26T00:56:27;99933.14;;;21.18;75.67
42067;BME280;27734;47.028;28.820;2023-06-26T00:58:59;99938.50;;;21.16;75.57
42067;BME280;27734;47.028;28.820;2023-06-26T01:01:30;99929.56;;;21.17;74.60
42067;BME280;27734;47.028;28.820;2023-06-26T01:04:02;99936.75;;;21.14;74.54
42067;BME280;27734;47.028;28.820;2023-06-26T01:06:36;99937.63;;;21.14;74.48
42067;BME280;27734;47.028;28.820;2023-06-26T01:09:07;99919.85;;;21.15;74.64
42067;BME280;27734;47.028;28.820;2023-06-26T01:11:40;99926.92;;;21.16;75.01
42067;BME280;27734;47.028;28.820;2023-06-26T01:14:11;99930.50;;;21.16;75.12
42067;BME280;27734;47.028;28.820;2023-06-26T01:16:44;99920.77;;;21.12;74.60
42067;BME280;27734;47.028;28.820;2023-06-26T01:19:23;99915.44;;;21.12;74.18
42067;BME280;27734;47.028;28.820;2023-06-26T01:22:00;99919.91;;;21.12;75.23
42067;BME280;27734;47.028;28.820;2023-06-26T01:24:36;99911.98;;;21.07;74.99
42067;BME280;27734;47.028;28.820;2023-06-26T01:27:09;99905.82;;;21.04;74.31
42067;BME280;27734;47.028;28.820;2023-06-26T01:29:42;99910.25;;;21.03;74.97
42067;BME280;27734;47.028;28.820;2023-06-26T01:32:15;99907.61;;;21.01;75.28
42067;BME280;27734;47.028;28.820;2023-06-26T01:34:47;99905.88;;;21.00;75.10
42067;BME280;27734;47.028;28.820;2023-06-26T01:37:18;99901.46;;;20.98;75.25
42067;BME280;27734;47.028;28.820;2023-06-26T01:39:49;99903.28;;;20.96;74.82
42067;BME280;27734;47.028;28.820;2023-06-26T01:42:22;99901.53;;;20.93;75.02
42067;BME280;27734;47.028;28.820;2023-06-26T01:44:54;99905.12;;;20.91;74.92
42067;BME280;27734;47.028;28.820;2023-06-26T01:47:25;99905.19;;;20.86;75.84
42067;BME280;27734;47.028;28.820;2023-06-26T01:50:02;99902.58;;;20.83;75.26
42067;BME280;27734;47.028;28.820;2023-06-26T01:52:40;99906.17;;;20.82;75.46
42067;BME280;27734;47.028;28.820;2023-06-26T01:55:22;99904.39;;;20.81;74.70
42067;BME280;27734;47.028;28.820;2023-06-26T01:57:57;99903.53;;;20.80;75.33
42067;BME280;27734;47.028;28.820;2023-06-26T02:00:30;99902.63;;;20.80;75.60
42067;BME280;27734;47.028;28.820;2023-06-26T02:03:03;99900.86;;;20.80;75.58
42067;BME280;27734;47.028;28.820;2023-06-26T02:05:36;99897.30;;;20.80;75.45
42067;BME280;27734;47.028;28.820;2023-06-26T02:08:10;99903.55;;;20.79;76.09
42067;BME280;27734;47.028;28.820;2023-06-26T02:10:41;99900.88;;;20.79;75.95
42067;BME280;27734;47.028;28.820;2023-06-26T02:13:13;99904.42;;;20.79;75.06
42067;BME280;27734;47.028;28.820;2023-06-26T02:15:44;99900.91;;;20.77;76.20
42067;BME280;27734;47.028;28.820;2023-06-26T02:18:15;99900.03;;;20.75;75.62
42067;BME280;27734;47.028;28.820;2023-06-26T02:20:47;99897.34;;;20.77;76.32
42067;BME280;27734;47.028;28.820;2023-06-26T02:23:18;99900.94;;;20.76;75.27
42067;BME280;27734;47.028;28.820;2023-06-26T02:25:50;99896.47;;;20.76;75.65
42067;BME280;27734;47.028;28.820;2023-06-26T02:28:21;99899.13;;;20.76;76.51
42067;BME280;27734;47.028;28.820;2023-06-26T02:30:52;99892.01;;;20.77;75.60
42067;BME280;27734;47.028;28.820;2023-06-26T02:33:23;99892.91;;;20.77;76.29
42067;BME280;27734;47.028;28.820;2023-06-26T02:35:55;99889.34;;;20.77;76.12
42067;BME280;27734;47.028;28.820;2023-06-26T02:38:26;99888.50;;;20.75;75.32
42067;BME280;27734;47.028;28.820;2023-06-26T02:40:57;99886.72;;;20.74;75.70
42067;BME280;27734;47.028;28.820;2023-06-26T02:43:30;99900.08;;;20.72;76.50
42067;BME280;27734;47.028;28.820;2023-06-26T02:46:01;99893.00;;;20.71;76.18
42067;BME280;27734;47.028;28.820;2023-06-26T02:48:33;99896.56;;;20.70;76.07
42067;BME280;27734;47.028;28.820;2023-06-26T02:51:04;99895.74;;;20.67;76.33
42067;BME280;27734;47.028;28.820;2023-06-26T02:53:36;99895.75;;;20.63;75.88
42067;BME280;27734;47.028;28.820;2023-06-26T02:56:08;99895.75;;;20.63;76.60
42067;BME280;27734;47.028;28.820;2023-06-26T02:58:40;99901.09;;;20.65;76.80
42067;BME280;27734;47.028;28.820;2023-06-26T03:01:11;99898.43;;;20.65;76.83
42067;BME280;27734;47.028;28.820;2023-06-26T03:03:43;99901.98;;;20.62;76.61
42067;BME280;27734;47.028;28.820;2023-06-26T03:06:18;99903.75;;;20.63;76.31
42067;BME280;27734;47.028;28.820;2023-06-26T03:08:49;99901.09;;;20.65;76.86
42067;BME280;27734;47.028;28.820;2023-06-26T03:11:20;99901.95;;;20.67;76.37
42067;BME280;27734;47.028;28.820;2023-06-26T03:13:53;99911.73;;;20.67;76.96
42067;BME280;27734;47.028;28.820;2023-06-26T03:16:24;99909.09;;;20.65;77.45
42067;BME280;27734;47.028;28.820;2023-06-26T03:18:55;99911.71;;;20.68;77.38
42067;BME280;27734;47.028;28.820;2023-06-26T03:21:27;99922.38;;;20.68;77.12
42067;BME280;27734;47.028;28.820;2023-06-26T03:23:58;99917.95;;;20.65;77.34
42067;BME280;27734;47.028;28.820;2023-06-26T03:26:31;99912.60;;;20.67;77.47
42067;BME280;27734;47.028;28.820;2023-06-26T03:29:03;99921.47;;;20.68;76.76
42067;BME280;27734;47.028;28.820;2023-06-26T03:31:35;99923.29;;;20.65;76.95
42067;BME280;27734;47.028;28.820;2023-06-26T03:34:07;99912.62;;;20.64;77.89
42067;BME280;27734;47.028;28.820;2023-06-26T03:36:38;99916.16;;;20.66;76.55
42067;BME280;27734;47.028;28.820;2023-06-26T03:39:09;99917.06;;;20.67;77.66
42067;BME280;27734;47.028;28.820;2023-06-26T03:41:41;99922.41;;;20.63;77.42
42067;BME280;27734;47.028;28.820;2023-06-26T03:44:12;99917.99;;;20.61;77.46
42067;BME280;27734;47.028;28.820;2023-06-26T03:46:49;99916.22;;;20.60;77.54
42067;BME280;27734;47.028;28.820;2023-06-26T03:49:21;99907.38;;;20.58;76.65
42067;BME280;27734;47.028;28.820;2023-06-26T03:51:52;99909.15;;;20.59;77.03
42067;BME280;27734;47.028;28.820;2023-06-26T03:54:25;99912.70;;;20.58;78.28
42067;BME280;27734;47.028;28.820;2023-06-26T03:56:56;99904.73;;;20.56;78.00
42067;BME280;27734;47.028;28.820;2023-06-26T03:59:28;99910.06;;;20.56;77.48
42067;BME280;27734;47.028;28.820;2023-06-26T04:01:59;99909.19;;;20.56;76.99
42067;BME280;27734;47.028;28.820;2023-06-26T04:04:31;99913.67;;;20.54;78.07
42067;BME280;27734;47.028;28.820;2023-06-26T04:07:02;99915.46;;;20.52;77.69
42067;BME280;27734;47.028;28.820;2023-06-26T04:09:33;99911.13;;;20.46;77.77
42067;BME280;27734;47.028;28.820;2023-06-26T04:12:06;99906.68;;;20.45;77.92
42067;BME280;27734;47.028;28.820;2023-06-26T04:14:37;99913.78;;;20.46;77.61
42067;BME280;27734;47.028;28.820;2023-06-26T04:17:08;99912.02;;;20.45;77.91
42067;BME280;27734;47.028;28.820;2023-06-26T04:19:40;99904.84;;;20.48;78.32
42067;BME280;27734;47.028;28.820;2023-06-26T04:22:11;99911.08;;;20.49;77.66
42067;BME280;27734;47.028;28.820;2023-06-26T04:24:42;99912.80;;;20.52;77.34
42067;BME280;27734;47.028;28.820;2023-06-26T04:27:16;99903.86;;;20.56;78.27
42067;BME280;27734;47.028;28.820;2023-06-26T04:29:47;99912.66;;;20.61;78.63
42067;BME280;27734;47.028;28.820;2023-06-26T04:32:18;99905.45;;;20.69;78.69
42067;BME280;27734;47.028;28.820;2023-06-26T04:34:49;99905.31;;;20.78;78.23
42067;BME280;27734;47.028;28.820;2023-06-26T04:37:21;99911.43;;;20.87;78.63
42067;BME280;27734;47.028;28.820;2023-06-26T04:39:54;99913.07;;;20.94;78.11
42067;BME280;27734;47.028;28.820;2023-06-26T04:42:25;99915.66;;;20.98;77.58
42067;BME280;27734;47.028;28.820;2023-06-26T04:44:56;99913.80;;;21.05;78.13
42067;BME280;27734;47.028;28.820;2023-06-26T04:47:28;99910.10;;;21.12;78.56
42067;BME280;27734;47.028;28.820;2023-06-26T04:49:59;99904.66;;;21.18;78.75
42067;BME280;27734;47.028;28.820;2023-06-26T04:52:35;99907.25;;;21.23;77.80
42067;BME280;27734;47.028;28.820;2023-06-26T04:55:08;99916.05;;;21.28;78.45
42067;BME280;27734;47.028;28.820;2023-06-26T04:57:39;99923.13;;;21.31;77.62
42067;BME280;27734;47.028;28.820;2023-06-26T05:00:13;99915.94;;;21.34;77.34
42067;BME280;27734;47.028;28.820;2023-06-26T05:02:47;99908.78;;;21.38;78.13
42067;BME280;27734;47.028;28.820;2023-06-26T05:05:19;99918.55;;;21.37;77.97
42067;BME280;27734;47.028;28.820;2023-06-26T05:07:52;99912.29;;;21.40;77.53
42067;BME280;27734;47.028;28.820;2023-06-26T05:10:23;99910.44;;;21.44;77.79
42067;BME280;27734;47.028;28.820;2023-06-26T05:12:55;99912.16;;;21.49;76.87
42067;BME280;27734;47.028;28.820;2023-06-26T05:15:26;99917.33;;;21.59;77.99
42067;BME280;27734;47.028;28.820;2023-06-26T05:17:57;99926.92;;;21.67;77.18
42067;BME280;27734;47.028;28.820;2023-06-26T05:20:30;99919.77;;;21.71;77.30
42067;BME280;27734;47.028;28.820;2023-06-26T05:23:02;99918.77;;;21.75;77.29
42067;BME280;27734;47.028;28.820;2023-06-26T05:25:34;99919.47;;;21.86;76.95
42067;BME280;27734;47.028;28.820;2023-06-26T05:28:10;99917.42;;;21.99;77.29
42067;BME280;27734;47.028;28.820;2023-06-26T05:30:45;99913.39;;;22.20;76.57
42067;BME280;27734;47.028;28.820;2023-06-26T05:33:21;99912.96;;;22.42;76.46
42067;BME280;27734;47.028;28.820;2023-06-26T05:36:00;99909.04;;;22.58;75.50
42067;BME280;27734;47.028;28.820;2023-06-26T05:38:36;99919.73;;;22.58;74.81
42067;BME280;27734;47.028;28.820;2023-06-26T05:41:08;99906.54;;;22.51;74.22
42067;BME280;27734;47.028;28.820;2023-06-26T05:43:42;99914.56;;;22.51;73.34
42067;BME280;27734;47.028;28.820;2023-06-26T05:46:13;99923.55;;;22.47;73.26
42067;BME280;27734;47.028;28.820;2023-06-26T05:48:45;99921.98;;;22.38;72.93
42067;BME280;27734;47.028;28.820;2023-06-26T05:51:20;99921.05;;;22.39;72.19
42067;BME280;27734;47.028;28.820;2023-06-26T05:53:54;99921.88;;;22.42;71.36
42067;BME280;27734;47.028;28.820;2023-06-26T05:56:31;99923.38;;;22.54;71.76
42067;BME280;27734;47.028;28.820;2023-06-26T05:59:09;99915.95;;;22.67;70.07
42067;BME280;27734;47.028;28.820;2023-06-26T06:01:42;99922.88;;;22.76;69.64
42067;BME280;27734;47.028;28.820;2023-06-26T06:04:16;99913.77;;;22.85;70.56
42067;BME280;27734;47.028;28.820;2023-06-26T06:06:51;99918.04;;;22.92;70.38
42067;BME280;27734;47.028;28.820;2023-06-26T06:09:26;99913.59;;;22.92;70.09
42067;BME280;27734;47.028;28.820;2023-06-26T06:12:01;99916.19;;;22.95;69.11
42067;BME280;27734;47.028;28.820;2023-06-26T06:14:45;99918.72;;;23.02;69.44
42067;BME280;27734;47.028;28.820;2023-06-26T06:17:22;99919.47;;;23.07;68.78
42067;BME280;27734;47.028;28.820;2023-06-26T06:19:54;99913.20;;;23.09;69.06
42067;BME280;27734;47.028;28.820;2023-06-26T06:22:32;99914.08;;;23.10;68.55
42067;BME280;27734;47.028;28.820;2023-06-26T06:25:21;99911.40;;;23.10;68.54
42067;BME280;27734;47.028;28.820;2023-06-26T06:28:24;99920.22;;;23.13;68.26
42067;BME280;27734;47.028;28.820;2023-06-26T06:30:58;99912.91;;;23.20;67.67
42067;BME280;27734;47.028;28.820;2023-06-26T06:33:31;99920.50;;;23.37;67.48
42067;BME280;27734;47.028;28.820;2023-06-26T06:36:02;99911.19;;;23.52;67.41
42067;BME280;27734;47.028;28.820;2023-06-26T06:38:33;99915.59;;;23.55;66.53
42067;BME280;27734;47.028;28.820;2023-06-26T06:41:08;99911.19;;;23.52;66.70
42067;BME280;27734;47.028;28.820;2023-06-26T06:43:42;99924.83;;;23.43;65.86
42067;BME280;27734;47.028;28.820;2023-06-26T06:46:18;99916.13;;;23.35;66.33
42067;BME280;27734;47.028;28.820;2023-06-26T06:49:05;99917.03;;;23.33;65.93
42067;BME280;27734;47.028;28.820;2023-06-26T06:51:37;99916.95;;;23.37;66.34
42067;BME280;27734;47.028;28.820;2023-06-26T06:54:08;99918.31;;;23.53;66.20
42067;BME280;27734;47.028;28.820;2023-06-26T06:56:43;99909.58;;;23.78;65.45
42067;BME280;27734;47.028;28.820;2023-06-26T06:59:14;99899.91;;;24.05;64.82
42067;BME280;27734;47.028;28.820;2023-06-26T07:01:57;99905.64;;;24.22;64.93
42067;BME280;27734;47.028;28.820;2023-06-26T07:04:31;99912.68;;;24.27;64.64
42067;BME280;27734;47.028;28.820;2023-06-26T07:07:07;99906.33;;;24.29;64.57
42067;BME280;27734;47.028;28.820;2023-06-26T07:09:39;99899.14;;;24.31;64.20
42067;BME280;27734;47.028;28.820;2023-06-26T07:12:12;99910.69;;;24.33;64.36
42067;BME280;27734;47.028;28.820;2023-06-26T07:14:46;99900.64;;;24.40;63.54
42067;BME280;27734;47.028;28.820;2023-06-26T07:17:17;99899.34;;;24.53;63.46
42067;BME280;27734;47.028;28.820;2023-06-26T07:19:49;99908.28;;;24.82;63.43
42067;BME280;27734;47.028;28.820;2023-06-26T07:22:20;99919.92;;;25.09;60.97
42067;BME280;27734;47.028;28.820;2023-06-26T07:24:53;99907.91;;;25.21;61.98
42067;BME280;27734;47.028;28.820;2023-06-26T07:27:29;99903.02;;;25.34;60.88
42067;BME280;27734;47.028;28.820;2023-06-26T07:30:01;99904.16;;;25.52;59.79
42067;BME280;27734;47.028;28.820;2023-06-26T07:32:35;99913.01;;;25.56;59.70
42067;BME280;27734;47.028;28.820;2023-06-26T07:35:07;99912.84;;;25.60;58.39
42067;BME280;27734;47.028;28.820;2023-06-26T07:37:47;99928.55;;;25.46;56.70
42067;BME280;27734;47.028;28.820;2023-06-26T07:40:21;99925.26;;;25.38;57.44
42067;BME280;27734;47.028;28.820;2023-06-26T07:42:52;99924.78;;;25.25;55.19
42067;BME280;27734;47.028;28.820;2023-06-26T07:45:27;99915.70;;;25.29;55.29
42067;BME280;27734;47.028;28.820;2023-06-26T07:47:58;99923.64;;;25.59;54.63
42067;BME280;27734;47.028;28.820;2023-06-26T07:50:30;99925.89;;;25.71;54.15
42067;BME280;27734;47.028;28.820;2023-06-26T07:53:01;99924.97;;;25.96;51.83
42067;BME280;27734;47.028;28.820;2023-06-26T07:55:33;99924.92;;;26.23;49.30
42067;BME280;27734;47.028;28.820;2023-06-26T07:58:27;99920.69;;;26.39;52.89
42067;BME280;27734;47.028;28.820;2023-06-26T08:00:59;99913.19;;;26.47;53.72
42067;BME280;27734;47.028;28.820;2023-06-26T08:03:33;99923.08;;;26.47;53.52
42067;BME280;27734;47.028;28.820;2023-06-26T08:06:06;99918.06;;;26.37;53.82
42067;BME280;27734;47.028;28.820;2023-06-26T08:08:55;99922.92;;;26.28;53.20
42067;BME280;27734;47.028;28.820;2023-06-26T08:11:26;99917.90;;;26.18;53.46
42067;BME280;27734;47.028;28.820;2023-06-26T08:13:59;99923.50;;;26.12;53.19
42067;BME280;27734;47.028;28.820;2023-06-26T08:16:32;99915.67;;;26.06;53.36
42067;BME280;27734;47.028;28.820;2023-06-26T08:19:09;99926.91;;;25.92;52.21
42067;BME280;27734;47.028;28.820;2023-06-26T08:21:41;99926.48;;;25.79;51.75
42067;BME280;27734;47.028;28.820;2023-06-26T08:24:18;99929.39;;;25.73;51.83
42067;BME280;27734;47.028;28.820;2023-06-26T08:26:59;99931.21;;;25.73;51.98
42067;BME280;27734;47.028;28.820;2023-06-26T08:29:33;99928.58;;;25.71;51.72
42067;BME280;27734;47.028;28.820;2023-06-26T08:32:06;99925.33;;;25.61;51.43
42067;BME280;27734;47.028;28.820;2023-06-26T08:34:42;99926.27;;;25.60;51.28
42067;BME280;27734;47.028;28.820;2023-06-26T08:37:34;99919.89;;;25.63;51.36
42067;BME280;27734;47.028;28.820;2023-06-26T08:43:08;99915.67;;;26.06;51.35
42067;BME280;27734;47.028;28.820;2023-06-26T08:45:40;99907.00;;;26.45;51.05
42067;BME280;27734;47.028;28.820;2023-06-26T08:48:12;99914.31;;;26.87;50.00
42067;BME280;27734;47.028;28.820;2023-06-26T08:50:54;99924.38;;;27.04;47.66
42067;BME280;27734;47.028;28.820;2023-06-26T08:53:33;99916.98;;;27.09;48.73
42067;BME280;27734;47.028;28.820;2023-06-26T08:56:08;99912.97;;;27.20;47.72
42067;BME280;27734;47.028;28.820;2023-06-26T08:58:46;99923.25;;;27.32;46.59
42067;BME280;27734;47.028;28.820;2023-06-26T09:01:21;99922.39;;;27.32;46.09
42067;BME280;27734;47.028;28.820;2023-06-26T09:03:57;99915.38;;;27.48;45.89
42067;BME280;27734;47.028;28.820;2023-06-26T09:06:29;99907.82;;;27.56;44.98
42067;BME280;27734;47.028;28.820;2023-06-26T09:09:03;99910.38;;;27.59;45.35
42067;BME280;27734;47.028;28.820;2023-06-26T09:11:36;99919.56;;;27.55;43.97
42067;BME280;27734;47.028;28.820;2023-06-26T09:14:09;99908.92;;;27.52;43.86
42067;BME280;27734;47.028;28.820;2023-06-26T09:16:45;99914.05;;;27.58;44.56
42067;BME280;27734;47.028;28.820;2023-06-26T09:19:20;99906.75;;;27.60;44.56
42067;BME280;27734;47.028;28.820;2023-06-26T09:21:52;99909.38;;;27.62;43.96
42067;BME280;27734;47.028;28.820;2023-06-26T09:24:27;99907.91;;;27.75;44.15
42067;BME280;27734;47.028;28.820;2023-06-26T09:27:01;99904.31;;;27.75;43.46
42067;BME280;27734;47.028;28.820;2023-06-26T09:29:34;99901.89;;;27.89;42.84
42067;BME280;27734;47.028;28.820;2023-06-26T09:32:09;99907.56;;;27.83;41.68
42067;BME280;27734;47.028;28.820;2023-06-26T09:34:42;99893.80;;;27.89;40.65
42067;BME280;27734;47.028;28.820;2023-06-26T09:37:24;99912.45;;;28.14;40.46
42067;BME280;27734;47.028;28.820;2023-06-26T09:39:56;99897.88;;;28.38;39.64
42067;BME280;27734;47.028;28.820;2023-06-26T09:42:35;99885.82;;;28.45;39.95
42067;BME280;27734;47.028;28.820;2023-06-26T09:45:20;99891.08;;;28.67;38.00
42067;BME280;27734;47.028;28.820;2023-06-26T09:47:56;99890.98;;;28.88;39.19
42067;BME280;27734;47.028;28.820;2023-06-26T09:50:30;99874.48;;;28.94;39.84
42067;BME280;27734;47.028;28.820;2023-06-26T09:53:10;99886.76;;;28.82;39.00
42067;BME280;27734;47.028;28.820;2023-06-26T09:55:59;99871.02;;;28.73;39.10
42067;BME280;27734;47.028;28.820;2023-06-26T09:58:41;99871.87;;;28.73;38.95
42067;BME280;27734;47.028;28.820;2023-06-26T10:01:16;99868.23;;;28.74;38.49
42067;BME280;27734;47.028;28.820;2023-06-26T10:03:53;99869.25;;;28.72;37.24
42067;BME280;27734;47.028;28.820;2023-06-26T10:06:31;99869.56;;;28.65;36.65
42067;BME280;27734;47.028;28.820;2023-06-26T10:09:05;99873.86;;;28.69;37.14
42067;BME280;27734;47.028;28.820;2023-06-26T10:11:40;99861.83;;;28.77;36.92
42067;BME280;27734;47.028;28.820;2023-06-26T10:14:13;99869.39;;;28.88;36.96
42067;BME280;27734;47.028;28.820;2023-06-26T10:16:47;99863.52;;;28.97;36.55
42067;BME280;27734;47.028;28.820;2023-06-26T10:19:20;99855.97;;;28.86;36.87
42067;BME280;27734;47.028;28.820;2023-06-26T10:21:55;99868.80;;;28.81;37.01
42067;BME280;27734;47.028;28.820;2023-06-26T10:24:35;99871.17;;;28.69;37.01
42067;BME280;27734;47.028;28.820;2023-06-26T10:27:10;99872.75;;;28.55;36.81
42067;BME280;27734;47.028;28.820;2023-06-26T10:29:49;99875.38;;;28.56;36.44
42067;BME280;27734;47.028;28.820;2023-06-26T10:32:23;99864.67;;;28.74;36.87
42067;BME280;27734;47.028;28.820;2023-06-26T10:34:56;99868.03;;;28.96;36.88
42067;BME280;27734;47.028;28.820;2023-06-26T10:40:40;99849.94;;;29.16;36.79
42067;BME280;27734;47.028;28.820;2023-06-26T10:43:16;99861.39;;;29.38;36.87
42067;BME280;27734;47.028;28.820;2023-06-26T10:45:55;99865.91;;;29.55;35.24
42067;BME280;27734;47.028;28.820;2023-06-26T10:48:30;99856.96;;;29.37;34.67
42067;BME280;27734;47.028;28.820;2023-06-26T10:51:14;99860.75;;;29.16;34.54
42067;BME280;27734;47.028;28.820;2023-06-26T10:53:52;99856.60;;;29.09;34.35
42067;BME280;27734;47.028;28.820;2023-06-26T10:56:54;99850.25;;;29.10;34.84
42067;BME280;27734;47.028;28.820;2023-06-26T10:59:30;99846.06;;;29.21;34.46
42067;BME280;27734;47.028;28.820;2023-06-26T11:02:04;99856.67;;;29.07;34.04
42067;BME280;27734;47.028;28.820;2023-06-26T11:04:46;99842.00;;;29.13;34.81
42067;BME280;27734;47.028;28.820;2023-06-26T11:07:25;99833.13;;;29.28;34.19
42067;BME280;27734;47.028;28.820;2023-06-26T11:10:10;99844.55;;;29.33;34.13
42067;BME280;27734;47.028;28.820;2023-06-26T11:12:43;99829.06;;;29.19;34.24
42067;BME280;27734;47.028;28.820;2023-06-26T11:15:18;99835.07;;;29.07;33.99
42067;BME280;27734;47.028;28.820;2023-06-26T11:17:59;99827.05;;;29.05;33.87
42067;BME280;27734;47.028;28.820;2023-06-26T11:20:31;99821.49;;;28.91;33.49
42067;BME280;27734;47.028;28.820;2023-06-26T11:23:08;99823.21;;;28.75;32.76
42067;BME280;27734;47.028;28.820;2023-06-26T11:25:41;99824.66;;;28.82;32.65
42067;BME280;27734;47.028;28.820;2023-06-26T11:28:14;99820.39;;;28.95;32.60
42067;BME280;27734;47.028;28.820;2023-06-26T11:30:48;99823.25;;;28.92;32.96
42067;BME280;27734;47.028;28.820;2023-06-26T11:33:31;99820.70;;;28.89;33.18
42067;BME280;27734;47.028;28.820;2023-06-26T11:36:17;99824.89;;;28.77;33.13
42067;BME280;27734;47.028;28.820;2023-06-26T11:39:05;99825.28;;;28.69;33.30
42067;BME280;27734;47.028;28.820;2023-06-26T11:41:44;99815.16;;;28.92;33.38
42067;BME280;27734;47.028;28.820;2023-06-26T11:44:25;99812.52;;;29.08;33.58
42067;BME280;27734;47.028;28.820;2023-06-26T11:47:00;99816.55;;;29.17;33.11
42067;BME280;27734;47.028;28.820;2023-06-26T11:49:32;99815.84;;;29.13;32.59
42067;BME280;27734;47.028;28.820;2023-06-26T11:52:08;99816.70;;;29.14;32.94
42067;BME280;27734;47.028;28.820;2023-06-26T11:54:43;99821.95;;;29.17;32.31
42067;BME280;27734;47.028;28.820;2023-06-26T11:57:19;99809.91;;;29.07;33.35
42067;BME280;27734;47.028;28.820;2023-06-26T11:59:54;99818.63;;;29.12;33.09
42067;BME280;27734;47.028;28.820;2023-06-26T12:02:26;99810.52;;;29.12;33.16
42067;BME280;27734;47.028;28.820;2023-06-26T12:04:58;99817.94;;;29.26;32.89
42067;BME280;27734;47.028;28.820;2023-06-26T12:07:32;99806.56;;;29.36;32.55
42067;BME280;27734;47.028;28.820;2023-06-26T12:10:13;99807.19;;;29.42;32.55
42067;BME280;27734;47.028;28.820;2023-06-26T12:13:08;99824.38;;;29.40;32.28
42067;BME280;27734;47.028;28.820;2023-06-26T12:15:43;99823.27;;;29.27;32.27
42067;BME280;27734;47.028;28.820;2023-06-26T12:18:14;99813.85;;;29.17;32.40
42067;BME280;27734;47.028;28.820;2023-06-26T12:20:49;99826.27;;;29.03;32.92
42067;BME280;27734;47.028;28.820;2023-06-26T12:23:20;99828.23;;;29.00;32.74
42067;BME280;27734;47.028;28.820;2023-06-26T12:25:56;99837.85;;;28.88;32.65
42067;BME280;27734;47.028;28.820;2023-06-26T12:28:37;99827.98;;;28.69;33.18
42067;BME280;27734;47.028;28.820;2023-06-26T12:31:17;99829.89;;;28.67;32.96
42067;BME280;27734;47.028;28.820;2023-06-26T12:33:53;99815.03;;;28.76;32.82
42067;BME280;27734;47.028;28.820;2023-06-26T12:36:27;99828.07;;;28.85;32.64
42067;BME280;27734;47.028;28.820;2023-06-26T12:39:04;99824.81;;;28.79;32.79
42067;BME280;27734;47.028;28.820;2023-06-26T12:41:45;99829.83;;;28.86;33.04
42067;BME280;27734;47.028;28.820;2023-06-26T12:44:27;99832.06;;;28.96;32.53
42067;BME280;27734;47.028;28.820;2023-06-26T12:47:02;99836.09;;;29.04;32.53
42067;BME280;27734;47.028;28.820;2023-06-26T12:49:35;99823.72;;;29.00;32.37
42067;BME280;27734;47.028;28.820;2023-06-26T12:52:10;99831.20;;;28.95;32.62
42067;BME280;27734;47.028;28.820;2023-06-26T12:54:45;99818.24;;;29.02;32.69
42067;BME280;27734;47.028;28.820;2023-06-26T12:57:26;99824.37;;;29.23;32.58
42067;BME280;27734;47.028;28.820;2023-06-26T12:59:58;99810.78;;;29.42;32.71
42067;BME280;27734;47.028;28.820;2023-06-26T13:02:34;99820.98;;;29.53;32.72
42067;BME280;27734;47.028;28.820;2023-06-26T13:05:07;99833.27;;;29.43;31.96
42067;BME280;27734;47.028;28.820;2023-06-26T13:07:39;99834.23;;;29.24;31.40
42067;BME280;27734;47.028;28.820;2023-06-26T13:10:14;99840.39;;;29.09;31.68
42067;BME280;27734;47.028;28.820;2023-06-26T13:12:51;99842.08;;;28.94;31.53
42067;BME280;27734;47.028;28.820;2023-06-26T13:15:26;99835.92;;;28.73;31.37
42067;BME280;27734;47.028;28.820;2023-06-26T13:18:02;99835.84;;;28.74;31.68
42067;BME280;27734;47.028;28.820;2023-06-26T13:20:42;99836.55;;;28.78;31.72
42067;BME280;27734;47.028;28.820;2023-06-26T13:23:13;99842.46;;;28.86;31.88
42067;BME280;27734;47.028;28.820;2023-06-26T13:25:45;99835.70;;;28.95;32.01
42067;BME280;27734;47.028;28.820;2023-06-26T13:28:18;99827.36;;;28.99;31.74
42067;BME280;27734;47.028;28.820;2023-06-26T13:30:53;99818.95;;;29.05;31.93
42067;BME280;27734;47.028;28.820;2023-06-26T13:33:33;99820.70;;;29.07;32.00